createdAt,value
2019-04-30T00:00:06.185Z,6.80
2019-04-30T00:02:40.362Z,6.27
2019-04-30T00:05:17.105Z,7.63
2019-04-30T00:07:41.529Z,7.30
2019-04-30T00:10:11.387Z,9.47
2019-04-30T00:12:40.981Z,10.03
2019-04-30T00:15:11.094Z,13.00
2019-04-30T00:17:41.783Z,17.83
2019-04-30T00:20:11.363Z,18.53
2019-04-30T00:22:47.076Z,17.93
2019-04-30T00:25:11.871Z,17.60
2019-04-30T00:27:41.335Z,16.87
2019-04-30T00:30:11.421Z,16.50
2019-04-30T00:32:43.780Z,16.80
2019-04-30T00:35:16.235Z,17.33
2019-04-30T00:37:51.676Z,15.07
2019-04-30T00:40:16.720Z,16.00
2019-04-30T00:42:46.053Z,14.97
2019-04-30T00:45:15.616Z,15.33
2019-04-30T00:47:47.879Z,15.30
2019-04-30T00:50:16.268Z,14.70
2019-04-30T00:52:45.991Z,15.07
2019-04-30T00:55:15.795Z,14.97
2019-04-30T00:57:47.470Z,15.63
2019-04-30T01:00:25.099Z,15.17
2019-04-30T01:03:00.790Z,15.40
2019-04-30T01:05:29.080Z,14.47
2019-04-30T01:07:58.667Z,14.47
2019-04-30T01:10:28.499Z,13.20
2019-04-30T01:12:59.851Z,13.30
2019-04-30T01:15:29.506Z,12.47
2019-04-30T01:17:59.435Z,12.53
2019-04-30T01:20:32.727Z,11.87
2019-04-30T01:23:03.033Z,12.37
2019-04-30T01:25:32.134Z,11.77
2019-04-30T01:28:01.977Z,11.37
2019-04-30T01:30:31.793Z,11.73
2019-04-30T01:33:01.235Z,12.23
2019-04-30T01:35:32.675Z,12.90
2019-04-30T01:38:04.020Z,14.17
2019-04-30T01:40:33.369Z,13.57
2019-04-30T01:43:02.936Z,14.70
2019-04-30T01:45:32.499Z,13.23
2019-04-30T01:48:08.820Z,14.47
2019-04-30T01:50:33.729Z,15.33
2019-04-30T01:53:04.860Z,15.77
2019-04-30T01:55:54.707Z,15.93
2019-04-30T01:58:30.244Z,14.97
2019-04-30T02:01:02.940Z,14.17
2019-04-30T02:03:32.860Z,15.00
2019-04-30T02:06:02.331Z,16.17
2019-04-30T02:08:31.935Z,16.03
2019-04-30T02:11:01.341Z,15.30
2019-04-30T02:13:34.335Z,16.23
2019-04-30T02:16:02.268Z,16.00
2019-04-30T02:18:31.796Z,16.07
2019-04-30T02:21:01.317Z,16.40
2019-04-30T02:23:30.934Z,16.23
2019-04-30T02:26:00.785Z,16.23
2019-04-30T02:28:30.343Z,16.23
2019-04-30T02:31:00.517Z,17.63
2019-04-30T02:33:31.944Z,16.40
2019-04-30T02:36:11.887Z,16.23
2019-04-30T02:38:44.657Z,16.23
2019-04-30T02:41:14.785Z,16.83
2019-04-30T02:43:44.347Z,16.87
2019-04-30T02:46:16.148Z,17.77
2019-04-30T02:48:47.335Z,19.30
2019-04-30T02:51:20.037Z,17.87
2019-04-30T02:54:23.902Z,16.83
2019-04-30T02:57:12.658Z,18.60
2019-04-30T03:00:00.443Z,17.97
2019-04-30T03:02:30.731Z,18.30
2019-04-30T03:05:00.410Z,17.20
2019-04-30T03:07:29.905Z,18.43
2019-04-30T03:09:59.968Z,18.00
2019-04-30T03:12:33.374Z,17.37
2019-04-30T03:15:01.236Z,16.40
2019-04-30T03:17:50.636Z,16.10
2019-04-30T03:20:36.354Z,15.47
2019-04-30T03:23:06.232Z,15.93
2019-04-30T03:25:35.785Z,16.17
2019-04-30T03:28:05.275Z,15.67
2019-04-30T03:30:34.745Z,15.10
2019-04-30T03:33:04.100Z,14.43
2019-04-30T03:35:33.600Z,13.93
2019-04-30T03:38:03.194Z,15.13
2019-04-30T03:40:32.698Z,13.00
2019-04-30T03:43:03.045Z,13.33
2019-04-30T03:45:32.999Z,12.67
2019-04-30T03:48:02.465Z,12.83
2019-04-30T03:50:48.614Z,14.23
2019-04-30T03:53:03.161Z,12.90
2019-04-30T03:55:32.838Z,12.50
2019-04-30T03:58:02.304Z,12.90
2019-04-30T04:00:46.717Z,11.30
2019-04-30T04:03:16.448Z,11.37
2019-04-30T04:06:00.215Z,10.83
2019-04-30T04:08:51.578Z,11.43
2019-04-30T04:11:29.768Z,10.90
2019-04-30T04:13:59.699Z,10.77
2019-04-30T04:16:32.104Z,11.17
2019-04-30T04:19:02.740Z,11.33
2019-04-30T04:21:31.623Z,11.33
2019-04-30T04:24:01.137Z,11.17
2019-04-30T04:26:30.825Z,10.33
2019-04-30T04:29:00.420Z,10.60
2019-04-30T04:31:31.085Z,10.77
2019-04-30T04:34:02.573Z,11.10
2019-04-30T04:36:31.983Z,11.90
2019-04-30T04:39:01.335Z,13.27
2019-04-30T04:41:30.892Z,12.30
2019-04-30T04:44:00.380Z,11.67
2019-04-30T04:46:30.639Z,12.83
2019-04-30T04:49:00.428Z,12.43
2019-04-30T04:51:37.996Z,13.27
2019-04-30T04:54:03.364Z,13.90
2019-04-30T04:56:32.224Z,13.00
2019-04-30T04:59:01.587Z,13.73
2019-04-30T05:01:31.021Z,13.60
2019-04-30T05:04:00.569Z,13.10
2019-04-30T05:06:30.067Z,13.60
2019-04-30T05:09:01.685Z,13.60
2019-04-30T05:11:31.665Z,12.43
2019-04-30T05:14:01.600Z,13.30
2019-04-30T05:16:31.034Z,13.63
2019-04-30T05:19:01.183Z,12.40
2019-04-30T05:21:41.708Z,12.37
2019-04-30T05:24:01.747Z,11.37
2019-04-30T05:26:31.342Z,11.23
2019-04-30T05:29:00.815Z,11.83
2019-04-30T05:31:30.208Z,11.30
2019-04-30T05:33:59.821Z,11.40
2019-04-30T05:36:29.372Z,10.90
2019-04-30T05:38:58.861Z,10.90
2019-04-30T05:41:28.957Z,11.53
2019-04-30T05:43:59.250Z,10.57
2019-04-30T05:46:29.831Z,10.67
2019-04-30T05:48:59.544Z,11.37
2019-04-30T05:51:29.252Z,11.33
2019-04-30T05:53:59.343Z,11.53
2019-04-30T05:56:30.450Z,11.80
2019-04-30T05:59:01.217Z,11.63
2019-04-30T06:01:30.551Z,11.33
2019-04-30T06:04:00.025Z,11.30
2019-04-30T06:06:29.435Z,10.77
2019-04-30T06:09:22.591Z,11.73
2019-04-30T06:12:20.315Z,10.33
2019-04-30T06:15:14.846Z,12.20
2019-04-30T06:17:57.924Z,13.93
2019-04-30T06:20:20.885Z,14.23
2019-04-30T06:22:52.239Z,15.17
2019-04-30T06:25:31.120Z,14.90
2019-04-30T06:27:52.828Z,14.77
2019-04-30T06:30:22.624Z,17.20
2019-04-30T06:32:52.851Z,15.90
2019-04-30T06:35:23.224Z,17.73
2019-04-30T06:37:52.793Z,17.73
2019-04-30T06:40:22.464Z,17.57
2019-04-30T06:42:51.937Z,17.43
2019-04-30T06:45:21.590Z,18.53
2019-04-30T06:47:51.604Z,19.33
2019-04-30T06:50:20.966Z,21.87
2019-04-30T06:52:56.746Z,20.80
2019-04-30T06:55:22.069Z,23.37
2019-04-30T06:57:51.475Z,22.53
2019-04-30T07:00:32.798Z,23.33
2019-04-30T07:02:55.301Z,26.23
2019-04-30T07:05:24.739Z,24.93
2019-04-30T07:08:12.288Z,26.30
2019-04-30T07:10:53.156Z,27.57
2019-04-30T07:13:19.643Z,25.63
2019-04-30T07:15:49.168Z,25.70
2019-04-30T07:18:19.013Z,26.97
2019-04-30T07:20:48.897Z,25.87
2019-04-30T07:23:18.825Z,25.17
2019-04-30T07:25:51.368Z,26.57
2019-04-30T07:28:19.854Z,26.30
2019-04-30T07:31:07.053Z,26.37
2019-04-30T07:33:20.960Z,25.27
2019-04-30T07:35:50.588Z,26.67
2019-04-30T07:38:20.097Z,25.43
2019-04-30T07:40:49.726Z,26.83
2019-04-30T07:43:19.263Z,26.77
2019-04-30T07:45:49.578Z,25.60
2019-04-30T07:48:23.969Z,26.23
2019-04-30T07:50:52.054Z,24.93
2019-04-30T07:53:21.795Z,24.57
2019-04-30T07:55:51.177Z,24.10
2019-04-30T07:58:20.686Z,23.80
2019-04-30T08:00:53.328Z,24.13
2019-04-30T08:03:46.405Z,23.83
2019-04-30T08:06:19.034Z,22.80
2019-04-30T08:08:50.093Z,25.13
2019-04-30T08:11:25.537Z,24.20
2019-04-30T08:13:51.317Z,23.83
2019-04-30T08:16:21.333Z,22.53
2019-04-30T08:18:50.948Z,22.87
2019-04-30T08:21:20.319Z,22.23
2019-04-30T08:23:49.831Z,21.37
2019-04-30T08:26:19.792Z,20.87
2019-04-30T08:28:49.163Z,21.50
2019-04-30T08:31:19.598Z,22.77
2019-04-30T08:33:49.215Z,22.80
2019-04-30T08:36:19.682Z,24.23
2019-04-30T08:38:49.627Z,23.20
2019-04-30T08:41:19.522Z,22.80
2019-04-30T08:43:49.667Z,23.23
2019-04-30T08:46:19.403Z,24.43
2019-04-30T08:48:51.790Z,23.90
2019-04-30T08:51:20.434Z,24.80
2019-04-30T08:53:50.159Z,24.97
2019-04-30T08:56:22.016Z,25.17
2019-04-30T08:58:51.039Z,25.67
2019-04-30T09:01:20.609Z,25.77
2019-04-30T09:03:51.322Z,25.87
2019-04-30T09:06:25.853Z,26.07
2019-04-30T09:09:02.118Z,25.23
2019-04-30T09:11:38.419Z,25.67
2019-04-30T09:14:03.025Z,24.30
2019-04-30T09:16:32.557Z,25.63
2019-04-30T09:19:02.078Z,25.17
2019-04-30T09:21:31.545Z,23.57
2019-04-30T09:24:01.047Z,24.27
2019-04-30T09:26:30.549Z,22.50
2019-04-30T09:29:00.196Z,23.63
2019-04-30T09:31:29.861Z,22.57
2019-04-30T09:34:01.008Z,21.83
2019-04-30T09:36:30.672Z,22.60
2019-04-30T09:39:01.502Z,21.50
2019-04-30T09:41:31.582Z,22.17
2019-04-30T09:44:01.143Z,24.13
2019-04-30T09:46:30.739Z,22.40
2019-04-30T09:49:00.310Z,24.63
2019-04-30T09:51:30.877Z,23.33
2019-04-30T09:54:03.696Z,23.13
2019-04-30T09:56:32.143Z,23.73
2019-04-30T09:59:01.921Z,22.70
2019-04-30T10:01:32.970Z,22.60
2019-04-30T10:04:03.497Z,23.60
2019-04-30T10:06:39.738Z,23.13
2019-04-30T10:09:09.376Z,23.63
2019-04-30T10:11:46.155Z,24.50
2019-04-30T10:14:15.933Z,24.47
2019-04-30T10:16:51.460Z,24.63
2019-04-30T10:19:20.854Z,24.70
2019-04-30T10:21:50.407Z,26.93
2019-04-30T10:24:19.777Z,26.77
2019-04-30T10:26:49.529Z,27.47
2019-04-30T10:29:20.887Z,26.23
2019-04-30T10:31:50.689Z,27.37
2019-04-30T10:34:20.144Z,25.90
2019-04-30T10:36:50.234Z,25.97
2019-04-30T10:39:21.802Z,27.57
2019-04-30T10:41:51.242Z,30.07
2019-04-30T10:44:20.836Z,26.77
2019-04-30T10:46:50.534Z,29.93
2019-04-30T10:49:20.108Z,32.70
2019-04-30T10:51:50.024Z,31.30
2019-04-30T10:54:25.748Z,27.97
2019-04-30T10:56:51.377Z,27.30
2019-04-30T10:59:21.239Z,29.13
2019-04-30T11:01:51.102Z,29.33
2019-04-30T11:04:20.537Z,26.50
2019-04-30T11:06:50.068Z,27.87
2019-04-30T11:09:19.636Z,28.07
2019-04-30T11:11:49.691Z,29.70
2019-04-30T11:14:19.533Z,27.47
2019-04-30T11:16:51.244Z,26.97
2019-04-30T11:19:20.492Z,26.90
2019-04-30T11:21:50.042Z,29.80
2019-04-30T11:24:19.966Z,31.60
2019-04-30T11:26:50.550Z,29.30
2019-04-30T11:29:23.047Z,29.20
2019-04-30T11:31:57.896Z,27.53
2019-04-30T11:34:28.251Z,27.77
2019-04-30T11:36:57.934Z,28.73
2019-04-30T11:39:29.768Z,26.63
2019-04-30T11:41:59.107Z,31.73
2019-04-30T11:44:31.444Z,26.37
2019-04-30T11:47:35.981Z,26.63
2019-04-30T11:50:10.648Z,26.27
2019-04-30T11:52:41.476Z,27.07
2019-04-30T11:55:11.411Z,26.67
2019-04-30T11:57:41.075Z,24.97
2019-04-30T12:00:14.697Z,24.40
2019-04-30T12:02:44.090Z,24.00
2019-04-30T12:05:16.529Z,24.80
2019-04-30T12:08:09.558Z,24.77
2019-04-30T12:10:47.198Z,24.37
2019-04-30T12:13:26.962Z,24.40
2019-04-30T12:15:58.918Z,22.77
2019-04-30T12:18:28.404Z,23.37
2019-04-30T12:20:58.065Z,21.73
2019-04-30T12:23:27.436Z,21.97
2019-04-30T12:25:59.145Z,20.40
2019-04-30T12:28:29.543Z,19.93
2019-04-30T12:30:59.299Z,17.10
2019-04-30T12:33:28.705Z,18.40
2019-04-30T12:35:59.627Z,17.93
2019-04-30T12:38:29.975Z,17.50
2019-04-30T12:40:59.769Z,17.07
2019-04-30T12:43:29.277Z,15.33
2019-04-30T12:46:03.384Z,15.27
2019-04-30T12:48:49.487Z,15.23
2019-04-30T12:51:28.420Z,14.17
2019-04-30T12:54:01.780Z,14.53
2019-04-30T12:56:48.461Z,15.00
2019-04-30T12:59:18.006Z,14.97
2019-04-30T13:01:49.445Z,15.23
2019-04-30T13:04:19.400Z,13.80
2019-04-30T13:06:49.710Z,13.40
2019-04-30T13:09:20.476Z,13.30
2019-04-30T13:11:51.118Z,13.13
2019-04-30T13:14:21.928Z,13.97
2019-04-30T13:16:51.969Z,13.97
2019-04-30T13:19:21.739Z,14.53
2019-04-30T13:21:51.162Z,12.53
2019-04-30T13:24:20.880Z,14.60
2019-04-30T13:26:50.386Z,14.13
2019-04-30T13:29:26.643Z,12.70
2019-04-30T13:31:56.056Z,12.80
2019-04-30T13:35:00.717Z,12.73
2019-04-30T13:37:38.867Z,12.27
2019-04-30T13:40:28.586Z,12.80
2019-04-30T13:42:58.671Z,13.23
2019-04-30T13:45:28.814Z,12.53
2019-04-30T13:47:58.942Z,13.23
2019-04-30T13:50:29.192Z,12.47
2019-04-30T13:52:58.911Z,12.73
2019-04-30T13:55:30.452Z,12.33
2019-04-30T13:57:59.631Z,11.13
2019-04-30T14:00:30.495Z,11.33
2019-04-30T14:03:10.159Z,13.20
2019-04-30T14:05:39.658Z,13.60
2019-04-30T14:08:17.623Z,13.23
2019-04-30T14:10:49.324Z,13.03
2019-04-30T14:13:18.845Z,12.30
2019-04-30T14:15:48.515Z,12.40
2019-04-30T14:18:28.521Z,11.43
2019-04-30T14:20:49.985Z,11.20
2019-04-30T14:23:19.853Z,11.97
2019-04-30T14:25:56.288Z,12.10
2019-04-30T14:28:20.676Z,11.00
2019-04-30T14:30:50.425Z,11.93
2019-04-30T14:33:25.948Z,11.70
2019-04-30T14:35:51.279Z,12.07
2019-04-30T14:38:20.803Z,12.00
2019-04-30T14:40:51.669Z,12.13
2019-04-30T14:43:29.768Z,13.80
2019-04-30T14:46:10.133Z,11.57
2019-04-30T14:48:46.450Z,11.80
2019-04-30T14:51:16.933Z,10.60
2019-04-30T14:54:09.537Z,9.27
2019-04-30T14:56:59.377Z,10.00
2019-04-30T14:59:49.946Z,9.83
2019-04-30T15:02:32.260Z,11.37
2019-04-30T15:05:01.895Z,10.40
2019-04-30T15:07:31.305Z,9.57
2019-04-30T15:10:00.864Z,9.77
2019-04-30T15:12:30.579Z,9.80
2019-04-30T15:15:00.409Z,9.47
2019-04-30T15:17:30.447Z,10.17
2019-04-30T15:20:00.094Z,10.10
2019-04-30T15:22:30.295Z,9.87
2019-04-30T15:25:00.086Z,10.30
2019-04-30T15:27:29.684Z,10.40
2019-04-30T15:29:59.243Z,9.90
2019-04-30T15:32:28.860Z,10.17
2019-04-30T15:34:58.893Z,8.80
2019-04-30T15:37:29.030Z,9.80
2019-04-30T15:39:59.447Z,10.13
2019-04-30T15:42:29.236Z,10.80
2019-04-30T15:44:59.430Z,10.67
2019-04-30T15:47:29.200Z,11.13
2019-04-30T15:50:01.840Z,11.37
2019-04-30T15:52:30.174Z,10.60
2019-04-30T15:54:59.749Z,11.03
2019-04-30T15:57:29.593Z,10.77
2019-04-30T15:59:59.599Z,10.90
2019-04-30T16:02:38.814Z,10.93
2019-04-30T16:05:26.424Z,10.13
2019-04-30T16:08:05.324Z,10.83
2019-04-30T16:11:00.408Z,10.47
2019-04-30T16:13:33.825Z,9.53
2019-04-30T16:16:03.539Z,10.00
2019-04-30T16:18:49.322Z,10.40
2019-04-30T16:21:19.422Z,10.77
2019-04-30T16:23:49.306Z,10.23
2019-04-30T16:26:19.987Z,9.87
2019-04-30T16:28:49.644Z,10.67
2019-04-30T16:31:20.557Z,10.47
2019-04-30T16:33:50.356Z,11.33
2019-04-30T16:36:19.793Z,10.20
2019-04-30T16:38:49.630Z,10.77
2019-04-30T16:41:31.157Z,10.60
2019-04-30T16:43:50.542Z,16.87
2019-04-30T16:46:19.940Z,10.87
2019-04-30T16:48:49.845Z,13.53
2019-04-30T16:51:19.392Z,10.37
2019-04-30T16:53:49.120Z,9.37
2019-04-30T16:56:19.188Z,10.00
2019-04-30T16:59:01.577Z,9.00
2019-04-30T17:01:32.624Z,8.47
2019-04-30T17:04:11.231Z,8.83
2019-04-30T17:06:44.106Z,8.70
2019-04-30T17:09:32.754Z,9.30
2019-04-30T17:12:12.216Z,8.80
2019-04-30T17:14:42.586Z,8.20
2019-04-30T17:17:12.258Z,8.73
2019-04-30T17:19:41.836Z,7.90
2019-04-30T17:22:11.588Z,7.30
2019-04-30T17:24:41.160Z,8.20
2019-04-30T17:27:19.010Z,8.43
2019-04-30T17:29:42.144Z,7.83
2019-04-30T17:32:11.653Z,8.17
2019-04-30T17:34:41.437Z,8.07
2019-04-30T17:37:11.619Z,8.00
2019-04-30T17:39:41.312Z,10.37
2019-04-30T17:42:11.310Z,8.60
2019-04-30T17:44:48.442Z,9.17
2019-04-30T17:47:12.790Z,8.97
2019-04-30T17:49:42.662Z,8.13
2019-04-30T17:52:12.451Z,8.47
2019-04-30T17:54:42.236Z,8.63
2019-04-30T17:57:11.916Z,8.27
2019-04-30T17:59:41.918Z,8.27
2019-04-30T18:02:13.188Z,7.90
2019-04-30T18:04:43.248Z,7.40
2019-04-30T18:07:12.988Z,7.07
2019-04-30T18:09:43.009Z,6.70
2019-04-30T18:12:12.770Z,6.83
2019-04-30T18:14:42.625Z,7.50
2019-04-30T18:17:12.678Z,6.67
2019-04-30T18:20:10.963Z,6.43
2019-04-30T18:22:49.904Z,6.03
2019-04-30T18:25:31.500Z,6.37
2019-04-30T18:28:02.315Z,6.83
2019-04-30T18:30:34.583Z,5.47
2019-04-30T18:33:05.140Z,5.50
2019-04-30T18:35:35.167Z,5.57
2019-04-30T18:38:05.485Z,6.10
2019-04-30T18:40:35.616Z,6.50
2019-04-30T18:43:05.971Z,6.03
2019-04-30T18:45:36.606Z,6.33
2019-04-30T18:48:06.706Z,6.27
2019-04-30T18:50:40.614Z,6.27
2019-04-30T18:53:18.592Z,6.47
2019-04-30T18:55:50.495Z,6.80
2019-04-30T18:58:20.179Z,7.20
2019-04-30T19:00:50.638Z,7.30
2019-04-30T19:03:22.408Z,6.77
2019-04-30T19:05:58.688Z,6.57
2019-04-30T19:08:51.292Z,5.83
2019-04-30T19:11:32.441Z,6.47
2019-04-30T19:14:31.585Z,7.10
2019-04-30T19:17:19.454Z,8.77
2019-04-30T19:20:04.641Z,10.00
2019-04-30T19:22:34.509Z,9.90
2019-04-30T19:25:04.735Z,9.47
2019-04-30T19:27:39.386Z,8.80
2019-04-30T19:30:13.323Z,8.97
2019-04-30T19:32:43.307Z,8.93
2019-04-30T19:35:13.298Z,9.37
2019-04-30T19:37:44.125Z,7.93
2019-04-30T19:40:14.043Z,7.00
2019-04-30T19:42:43.831Z,7.37
2019-04-30T19:45:14.701Z,6.17
2019-04-30T19:47:44.908Z,7.07
2019-04-30T19:50:15.740Z,7.43
2019-04-30T19:52:45.410Z,7.80
2019-04-30T19:55:15.525Z,6.80
2019-04-30T19:57:46.165Z,7.67
2019-04-30T20:00:16.712Z,6.90
2019-04-30T20:02:48.639Z,8.17
2019-04-30T20:05:19.419Z,9.20
2019-04-30T20:07:50.094Z,8.50
2019-04-30T20:10:20.379Z,7.87
2019-04-30T20:12:50.274Z,7.53
2019-04-30T20:15:24.340Z,7.27
2019-04-30T20:17:52.076Z,7.30
2019-04-30T20:20:22.141Z,7.27
2019-04-30T20:22:52.864Z,7.10
2019-04-30T20:25:23.120Z,7.83
2019-04-30T20:27:53.239Z,8.10
2019-04-30T20:30:23.165Z,10.03
2019-04-30T20:32:52.943Z,9.83
2019-04-30T20:35:23.182Z,10.87
2019-04-30T20:38:10.693Z,10.57
2019-04-30T20:40:43.861Z,9.50
2019-04-30T20:43:14.514Z,8.43
2019-04-30T20:45:44.902Z,9.17
2019-04-30T20:48:15.461Z,9.40
2019-04-30T20:50:45.478Z,7.80
2019-04-30T20:53:15.501Z,6.90
2019-04-30T20:55:45.325Z,7.30
2019-04-30T20:58:15.843Z,7.30
2019-04-30T21:00:46.199Z,6.67
2019-04-30T21:03:16.155Z,6.90
2019-04-30T21:05:46.098Z,6.33
2019-04-30T21:08:15.914Z,6.63
2019-04-30T21:10:46.001Z,7.57
2019-04-30T21:13:15.771Z,6.57
2019-04-30T21:15:45.697Z,6.63
2019-04-30T21:18:15.677Z,6.27
2019-04-30T21:20:45.270Z,5.90
2019-04-30T21:23:15.135Z,6.83
2019-04-30T21:25:44.624Z,6.47
2019-04-30T21:28:14.630Z,6.40
2019-04-30T21:30:44.376Z,7.20
2019-04-30T21:33:25.743Z,6.90
2019-04-30T21:36:15.020Z,7.03
2019-04-30T21:38:45.192Z,7.23
2019-04-30T21:41:14.701Z,7.07
2019-04-30T21:43:44.377Z,6.50
2019-04-30T21:46:13.984Z,6.73
2019-04-30T21:48:43.950Z,6.97
2019-04-30T21:51:13.838Z,7.00
2019-04-30T21:53:43.469Z,6.97
2019-04-30T21:56:13.027Z,6.93
2019-04-30T21:58:42.826Z,6.60
2019-04-30T22:01:20.462Z,6.80
2019-04-30T22:03:50.336Z,7.07
2019-04-30T22:06:20.519Z,7.17
2019-04-30T22:08:50.205Z,7.13
2019-04-30T22:11:19.947Z,6.93
2019-04-30T22:13:49.625Z,7.27
2019-04-30T22:16:20.459Z,7.43
2019-04-30T22:18:51.086Z,7.10
2019-04-30T22:21:20.775Z,7.37
2019-04-30T22:23:50.317Z,6.53
2019-04-30T22:26:19.814Z,7.10
2019-04-30T22:28:49.562Z,7.13
2019-04-30T22:31:19.787Z,7.23
2019-04-30T22:33:49.386Z,7.33
2019-04-30T22:36:44.235Z,7.20
2019-04-30T22:39:22.317Z,8.37
2019-04-30T22:41:53.329Z,7.53
2019-04-30T22:44:23.123Z,7.70
2019-04-30T22:46:52.698Z,7.53
2019-04-30T22:49:22.163Z,7.27
2019-04-30T22:51:51.610Z,8.50
2019-04-30T22:54:20.995Z,7.90
2019-04-30T22:56:50.605Z,8.57
2019-04-30T22:59:20.074Z,8.17
2019-04-30T23:01:58.372Z,7.43
2019-04-30T23:04:41.899Z,7.37
2019-04-30T23:07:11.463Z,7.30
2019-04-30T23:09:40.931Z,7.80
2019-04-30T23:12:10.917Z,7.70
2019-04-30T23:14:40.684Z,7.50
2019-04-30T23:17:10.358Z,7.70
2019-04-30T23:19:39.960Z,7.63
2019-04-30T23:22:09.753Z,8.03
2019-04-30T23:24:39.239Z,7.77
2019-04-30T23:27:08.655Z,7.90
2019-04-30T23:29:38.282Z,7.90
2019-04-30T23:32:07.732Z,8.07
2019-04-30T23:34:37.268Z,7.97
2019-04-30T23:37:06.916Z,7.73
2019-04-30T23:39:36.296Z,8.63
2019-04-30T23:42:05.788Z,7.87
2019-04-30T23:44:35.190Z,7.80
2019-04-30T23:47:04.906Z,8.57
2019-04-30T23:49:34.301Z,8.20
2019-04-30T23:52:04.304Z,7.80
2019-04-30T23:54:33.738Z,8.37
2019-04-30T23:57:03.167Z,8.37
2019-04-30T23:59:32.549Z,8.13
